createdAt,value
2023-04-21T00:01:13.681Z,19.50
2023-04-21T00:04:00.264Z,18.92
2023-04-21T00:06:45.633Z,19.65
2023-04-21T00:09:31.165Z,14.32
2023-04-21T00:12:16.458Z,19.15
2023-04-21T00:15:01.875Z,17.27
2023-04-21T00:17:47.471Z,24.30
2023-04-21T00:20:32.824Z,15.40
2023-04-21T00:23:17.989Z,18.10
2023-04-21T00:26:03.425Z,23.17
2023-04-21T00:28:48.619Z,23.67
2023-04-21T00:31:34.249Z,13.77
2023-04-21T00:34:19.341Z,26.92
2023-04-21T00:37:04.855Z,28.42
2023-04-21T00:39:51.548Z,18.02
2023-04-21T00:42:37.131Z,19.45
2023-04-21T00:45:22.569Z,24.08
2023-04-21T00:48:08.537Z,17.70
2023-04-21T00:50:53.767Z,21.27
2023-04-21T00:53:38.814Z,20.15
2023-04-21T00:56:25.906Z,14.40
2023-04-21T00:59:11.054Z,15.15
2023-04-21T01:01:56.433Z,23.45
2023-04-21T01:04:42.021Z,23.30
2023-04-21T01:07:28.169Z,19.15
2023-04-21T01:10:14.427Z,22.63
2023-04-21T01:12:59.527Z,24.40
2023-04-21T01:15:44.935Z,18.83
2023-04-21T01:18:30.525Z,23.13
2023-04-21T01:21:16.936Z,17.27
2023-04-21T01:24:02.345Z,20.58
2023-04-21T01:26:49.399Z,16.55
2023-04-21T01:29:34.793Z,19.60
2023-04-21T01:32:23.765Z,20.25
2023-04-21T01:35:11.485Z,25.33
2023-04-21T01:37:57.740Z,18.85
2023-04-21T01:40:42.989Z,20.10
2023-04-21T01:43:28.331Z,19.13
2023-04-21T01:46:15.581Z,17.65
2023-04-21T01:49:00.647Z,26.00
2023-04-21T01:51:46.200Z,19.63
2023-04-21T01:54:31.447Z,20.95
2023-04-21T01:57:17.546Z,27.33
2023-04-21T02:00:03.993Z,16.05
2023-04-21T02:03:00.688Z,22.80
2023-04-21T02:05:46.297Z,19.50
2023-04-21T02:08:31.333Z,21.95
2023-04-21T02:11:16.711Z,23.73
2023-04-21T02:14:02.014Z,18.42
2023-04-21T02:16:47.474Z,22.98
2023-04-21T02:19:32.856Z,20.00
2023-04-21T02:22:18.071Z,29.27
2023-04-21T02:25:04.506Z,18.10
2023-04-21T02:27:49.901Z,22.90
2023-04-21T02:30:35.611Z,18.98
2023-04-21T02:33:20.692Z,21.33
2023-04-21T02:36:07.137Z,21.13
2023-04-21T02:38:52.632Z,21.13
2023-04-21T02:41:37.689Z,25.60
2023-04-21T02:44:23.019Z,24.13
2023-04-21T02:47:08.345Z,17.30
2023-04-21T02:49:54.298Z,30.15
2023-04-21T02:52:41.763Z,19.15
2023-04-21T02:55:27.039Z,20.20
2023-04-21T02:58:12.349Z,22.08
2023-04-21T03:00:57.502Z,22.27
2023-04-21T03:03:43.141Z,24.27
2023-04-21T03:06:29.961Z,21.25
2023-04-21T03:09:15.252Z,21.98
2023-04-21T03:12:01.544Z,24.58
2023-04-21T03:14:46.760Z,17.48
2023-04-21T03:17:33.314Z,25.80
2023-04-21T03:20:18.789Z,21.50
2023-04-21T03:23:05.898Z,20.58
2023-04-21T03:25:51.200Z,22.83
2023-04-21T03:28:36.467Z,19.98
2023-04-21T03:31:21.921Z,19.00
2023-04-21T03:34:07.368Z,21.58
2023-04-21T03:36:53.394Z,23.33
2023-04-21T03:39:39.568Z,21.48
2023-04-21T03:42:26.112Z,24.90
2023-04-21T03:45:11.400Z,20.75
2023-04-21T03:47:56.918Z,18.35
2023-04-21T03:50:41.990Z,18.92
2023-04-21T03:53:27.379Z,25.17
2023-04-21T03:56:12.764Z,18.20
2023-04-21T03:58:58.015Z,24.05
2023-04-21T04:01:43.332Z,21.77
2023-04-21T04:04:28.791Z,23.58
2023-04-21T04:07:14.005Z,24.75
2023-04-21T04:09:59.487Z,19.52
2023-04-21T04:12:45.748Z,20.15
2023-04-21T04:15:30.928Z,19.80
2023-04-21T04:18:16.515Z,22.15
2023-04-21T04:21:08.071Z,21.48
2023-04-21T04:23:53.314Z,24.77
2023-04-21T04:26:41.337Z,23.52
2023-04-21T04:29:26.995Z,22.90
2023-04-21T04:32:12.513Z,20.27
2023-04-21T04:34:58.812Z,19.63
2023-04-21T04:37:45.422Z,22.08
2023-04-21T04:40:30.558Z,23.13
2023-04-21T04:43:19.757Z,20.95
2023-04-21T04:46:05.555Z,22.13
2023-04-21T04:48:50.861Z,21.58
2023-04-21T04:51:36.442Z,21.88
2023-04-21T04:54:21.997Z,20.08
2023-04-21T04:57:07.562Z,20.45
2023-04-21T04:59:56.188Z,20.85
2023-04-21T05:02:41.888Z,24.52
2023-04-21T05:05:27.122Z,22.08
2023-04-21T05:08:16.500Z,28.52
2023-04-21T05:11:03.411Z,22.15
2023-04-21T05:13:51.834Z,24.48
2023-04-21T05:16:37.330Z,17.60
2023-04-21T05:19:22.886Z,26.08
2023-04-21T05:22:10.792Z,24.05
2023-04-21T05:24:56.206Z,27.55
2023-04-21T05:27:42.335Z,21.65
2023-04-21T05:30:27.419Z,21.98
2023-04-21T05:33:13.079Z,19.73
2023-04-21T05:35:58.080Z,22.02
2023-04-21T05:38:43.506Z,22.27
2023-04-21T05:41:28.900Z,19.65
2023-04-21T05:44:16.780Z,23.90
2023-04-21T05:47:04.841Z,18.73
2023-04-21T05:49:53.963Z,20.25
2023-04-21T05:52:39.510Z,21.33
2023-04-21T05:55:24.533Z,22.98
2023-04-21T05:58:10.039Z,26.77
2023-04-21T06:00:55.190Z,19.88
2023-04-21T06:03:40.957Z,22.08
2023-04-21T06:06:27.247Z,22.10
2023-04-21T06:09:15.520Z,19.83
2023-04-21T06:12:03.488Z,18.58
2023-04-21T06:14:49.061Z,20.85
2023-04-21T06:17:34.427Z,23.10
2023-04-21T06:20:19.792Z,22.25
2023-04-21T06:23:05.231Z,18.67
2023-04-21T06:26:07.061Z,20.38
2023-04-21T06:28:52.276Z,20.80
2023-04-21T06:31:37.793Z,30.20
2023-04-21T06:34:22.819Z,20.33
2023-04-21T06:37:08.134Z,19.15
2023-04-21T06:39:53.575Z,19.55
2023-04-21T06:42:38.990Z,21.67
2023-04-21T06:45:24.512Z,21.13
2023-04-21T06:48:12.688Z,20.70
2023-04-21T06:50:58.417Z,20.13
2023-04-21T06:53:43.576Z,20.70
2023-04-21T06:56:29.626Z,24.42
2023-04-21T06:59:14.765Z,21.15
2023-04-21T07:02:00.507Z,20.38
2023-04-21T07:04:45.752Z,23.90
2023-04-21T07:07:30.794Z,22.63
2023-04-21T07:10:19.287Z,21.23
2023-04-21T07:13:05.751Z,22.75
2023-04-21T07:15:52.147Z,27.50
2023-04-21T07:18:39.864Z,17.35
2023-04-21T07:21:26.366Z,19.00
2023-04-21T07:24:11.470Z,20.08
2023-04-21T07:26:56.796Z,21.58
2023-04-21T07:29:41.894Z,22.10
2023-04-21T07:32:27.459Z,24.08
2023-04-21T07:35:12.864Z,21.23
2023-04-21T07:37:58.319Z,22.80
2023-04-21T07:40:43.765Z,24.23
2023-04-21T07:43:30.960Z,25.13
2023-04-21T07:46:16.255Z,19.95
2023-04-21T07:49:03.898Z,19.40
2023-04-21T07:51:49.299Z,17.00
2023-04-21T07:54:34.697Z,22.95
2023-04-21T07:57:20.260Z,16.75
2023-04-21T08:00:06.460Z,19.67
2023-04-21T08:02:57.500Z,16.15
2023-04-21T08:05:43.235Z,21.40
2023-04-21T08:08:30.735Z,20.25
2023-04-21T08:11:17.269Z,17.40
2023-04-21T08:14:03.403Z,20.65
2023-04-21T08:16:49.176Z,19.00
2023-04-21T08:19:34.359Z,22.30
2023-04-21T08:22:19.743Z,22.17
2023-04-21T08:25:06.157Z,21.83
2023-04-21T08:27:51.969Z,23.05
2023-04-21T08:30:37.228Z,14.85
2023-04-21T08:33:23.726Z,19.15
2023-04-21T08:36:18.185Z,17.38
2023-04-21T08:39:11.708Z,18.73
2023-04-21T08:42:01.385Z,19.27
2023-04-21T08:47:33.097Z,25.77
2023-04-21T08:50:19.108Z,12.77
2023-04-21T08:53:04.610Z,16.45
2023-04-21T08:56:07.389Z,15.77
2023-04-21T08:58:56.342Z,18.95
2023-04-21T09:02:06.895Z,16.13
2023-04-21T09:04:54.757Z,16.35
2023-04-21T09:07:41.364Z,21.48
2023-04-21T09:10:27.080Z,15.68
2023-04-21T09:13:13.305Z,17.17
2023-04-21T09:15:59.579Z,14.23
2023-04-21T09:18:45.141Z,19.77
2023-04-21T09:21:32.439Z,15.57
2023-04-21T09:24:17.742Z,15.95
2023-04-21T09:27:06.513Z,11.75
2023-04-21T09:29:52.262Z,18.80
2023-04-21T09:32:39.279Z,16.63
2023-04-21T09:35:29.259Z,13.25
2023-04-21T09:38:14.683Z,17.20
2023-04-21T09:41:00.476Z,17.52
2023-04-21T09:43:45.916Z,11.85
2023-04-21T09:46:37.085Z,17.85
2023-04-21T09:49:23.820Z,16.83
2023-04-21T09:52:19.013Z,16.35
2023-04-21T09:55:11.572Z,13.02
2023-04-21T09:58:02.130Z,15.27
2023-04-21T10:00:47.769Z,13.48
2023-04-21T10:03:44.028Z,13.55
2023-04-21T10:06:30.159Z,11.65
2023-04-21T10:09:21.275Z,14.90
2023-04-21T10:12:09.538Z,13.65
2023-04-21T10:14:56.411Z,15.02
2023-04-21T10:17:45.256Z,14.27
2023-04-21T10:20:30.430Z,12.98
2023-04-21T10:23:29.751Z,11.68
2023-04-21T10:26:35.783Z,11.68
2023-04-21T10:29:43.782Z,12.43
2023-04-21T10:32:42.403Z,17.15
2023-04-21T10:36:04.758Z,11.65
2023-04-21T10:38:56.535Z,13.13
2023-04-21T10:41:46.263Z,16.50
2023-04-21T10:44:31.772Z,14.55
2023-04-21T10:47:26.558Z,11.50
2023-04-21T10:50:20.221Z,14.13
2023-04-21T10:53:13.817Z,13.43
2023-04-21T10:55:59.597Z,12.90
2023-04-21T10:58:49.729Z,11.27
2023-04-21T11:01:35.611Z,14.68
2023-04-21T11:04:23.098Z,17.65
2023-04-21T11:07:12.180Z,12.82
2023-04-21T11:10:06.288Z,14.48
2023-04-21T11:12:51.803Z,12.57
2023-04-21T11:15:37.346Z,13.43
2023-04-21T11:18:39.117Z,12.57
2023-04-21T11:21:24.751Z,17.80
2023-04-21T11:24:10.267Z,11.73
2023-04-21T11:26:56.671Z,12.65
2023-04-21T11:29:42.279Z,13.93
2023-04-21T11:32:27.647Z,13.73
2023-04-21T11:35:15.579Z,12.25
2023-04-21T11:38:05.784Z,11.57
2023-04-21T11:40:51.562Z,18.35
2023-04-21T11:43:37.907Z,13.77
2023-04-21T11:46:25.675Z,13.77
2023-04-21T11:49:12.803Z,13.35
2023-04-21T11:51:58.396Z,12.20
2023-04-21T11:54:43.556Z,12.73
2023-04-21T11:57:30.267Z,14.15
2023-04-21T12:00:16.134Z,10.77
2023-04-21T12:03:01.731Z,17.33
2023-04-21T12:05:46.982Z,13.88
2023-04-21T12:08:32.816Z,14.35
2023-04-21T12:11:18.224Z,13.82
2023-04-21T12:14:06.061Z,13.20
2023-04-21T12:16:57.080Z,12.93
2023-04-21T12:19:43.198Z,13.02
2023-04-21T12:22:31.016Z,11.63
2023-04-21T12:25:16.523Z,15.25
2023-04-21T12:28:02.225Z,11.95
2023-04-21T12:30:47.507Z,11.88
2023-04-21T12:33:32.760Z,12.52
2023-04-21T12:36:18.349Z,11.18
2023-04-21T12:39:03.656Z,13.25
2023-04-21T12:41:48.998Z,14.60
2023-04-21T12:44:34.352Z,11.98
2023-04-21T12:47:19.766Z,14.00
2023-04-21T12:50:05.609Z,12.30
2023-04-21T12:52:51.756Z,15.07
2023-04-21T12:55:37.486Z,14.88
2023-04-21T12:58:22.793Z,16.27
2023-04-21T13:01:08.412Z,10.25
2023-04-21T13:04:04.972Z,7.07
2023-04-21T13:06:51.052Z,13.48
2023-04-21T13:09:36.753Z,9.73
2023-04-21T13:12:21.878Z,10.02
2023-04-21T13:15:07.961Z,12.10
2023-04-21T13:17:53.259Z,11.23
2023-04-21T13:20:38.553Z,12.15
2023-04-21T13:23:24.127Z,9.05
2023-04-21T13:26:12.325Z,9.30
2023-04-21T13:28:57.792Z,11.07
2023-04-21T13:31:43.255Z,9.05
2023-04-21T13:34:32.290Z,13.43
2023-04-21T13:40:05.062Z,15.80
2023-04-21T13:42:50.211Z,14.00
2023-04-21T13:45:35.367Z,10.70
2023-04-21T13:48:21.994Z,10.25
2023-04-21T13:51:08.073Z,12.95
2023-04-21T13:53:53.522Z,10.27
2023-04-21T13:56:38.674Z,11.13
2023-04-21T13:59:23.937Z,11.65
2023-04-21T14:02:09.263Z,9.27
2023-04-21T14:04:55.082Z,11.82
2023-04-21T14:07:42.898Z,10.45
2023-04-21T14:10:27.942Z,13.40
2023-04-21T14:13:27.387Z,9.73
2023-04-21T14:16:19.744Z,13.23
2023-04-21T14:19:05.023Z,12.55
2023-04-21T14:21:50.354Z,8.63
2023-04-21T14:24:35.739Z,11.48
2023-04-21T14:27:21.361Z,10.15
2023-04-21T14:30:10.231Z,9.00
2023-04-21T14:32:58.207Z,9.52
2023-04-21T14:35:43.521Z,10.40
2023-04-21T14:38:30.599Z,13.27
2023-04-21T14:41:16.074Z,10.38
2023-04-21T14:44:01.232Z,8.18
2023-04-21T14:46:53.719Z,10.75
2023-04-21T14:49:47.035Z,10.38
2023-04-21T14:52:32.505Z,9.65
2023-04-21T14:55:19.880Z,9.60
2023-04-21T14:58:05.336Z,18.67
2023-04-21T15:00:50.869Z,8.15
2023-04-21T15:03:37.148Z,9.90
2023-04-21T15:06:22.896Z,6.50
2023-04-21T15:09:08.098Z,12.05
2023-04-21T15:11:54.614Z,9.52
2023-04-21T15:14:40.481Z,12.07
2023-04-21T15:17:25.708Z,10.48
2023-04-21T15:20:11.352Z,10.50
2023-04-21T15:22:57.111Z,9.82
2023-04-21T15:25:42.558Z,12.98
2023-04-21T15:28:27.629Z,13.75
2023-04-21T15:31:12.970Z,9.05
2023-04-21T15:33:58.206Z,10.65
2023-04-21T15:36:43.313Z,8.50
2023-04-21T15:39:28.722Z,8.80
2023-04-21T15:42:14.460Z,12.35
2023-04-21T15:45:02.001Z,10.10
2023-04-21T15:47:47.155Z,10.05
2023-04-21T15:50:32.765Z,9.15
2023-04-21T15:53:19.985Z,9.70
2023-04-21T15:56:05.706Z,7.03
2023-04-21T15:58:50.944Z,9.70
2023-04-21T16:01:36.489Z,10.93
2023-04-21T16:04:22.554Z,10.48
2023-04-21T16:07:08.130Z,10.23
2023-04-21T16:09:53.482Z,11.15
2023-04-21T16:12:39.292Z,9.23
2023-04-21T16:15:25.282Z,14.65
2023-04-21T16:18:10.480Z,10.00
2023-04-21T16:20:55.829Z,9.88
2023-04-21T16:23:41.947Z,7.60
2023-04-21T16:26:27.425Z,15.75
2023-04-21T16:29:15.616Z,13.40
2023-04-21T16:32:01.042Z,10.30
2023-04-21T16:34:46.242Z,8.95
2023-04-21T16:37:31.414Z,10.18
2023-04-21T16:40:16.993Z,9.98
2023-04-21T16:43:02.470Z,8.27
2023-04-21T16:45:47.724Z,10.10
2023-04-21T16:48:33.118Z,14.63
2023-04-21T16:51:26.065Z,13.13
2023-04-21T16:54:11.734Z,12.82
2023-04-21T16:56:57.535Z,8.57
2023-04-21T16:59:42.683Z,8.20
2023-04-21T17:02:27.923Z,12.25
2023-04-21T17:05:15.442Z,9.35
2023-04-21T17:08:00.787Z,8.57
2023-04-21T17:10:46.387Z,9.93
2023-04-21T17:13:31.429Z,7.72
2023-04-21T17:16:17.214Z,8.90
2023-04-21T17:19:02.538Z,9.45
2023-04-21T17:21:47.712Z,10.77
2023-04-21T17:24:44.895Z,8.23
2023-04-21T17:27:35.642Z,8.85
2023-04-21T17:30:22.753Z,8.95
2023-04-21T17:33:16.055Z,6.85
2023-04-21T17:36:03.127Z,10.05
2023-04-21T17:38:49.576Z,8.73
2023-04-21T17:41:34.981Z,7.85
2023-04-21T17:44:20.684Z,8.95
2023-04-21T17:47:08.351Z,12.18
2023-04-21T17:49:53.588Z,13.02
2023-04-21T17:52:39.755Z,12.43
2023-04-21T17:55:25.182Z,9.13
2023-04-21T17:58:12.402Z,12.52
2023-04-21T18:00:57.848Z,9.48
2023-04-21T18:03:43.531Z,10.63
2023-04-21T18:06:28.975Z,9.27
2023-04-21T18:09:14.352Z,7.68
2023-04-21T18:11:59.729Z,10.10
2023-04-21T18:14:45.103Z,14.88
2023-04-21T18:17:30.560Z,10.13
2023-04-21T18:20:16.086Z,8.63
2023-04-21T18:23:01.429Z,11.15
2023-04-21T18:25:47.037Z,12.70
2023-04-21T18:28:32.419Z,7.78
2023-04-21T18:31:17.768Z,12.07
2023-04-21T18:34:03.272Z,8.13
2023-04-21T18:36:49.332Z,10.80
2023-04-21T18:39:34.648Z,9.70
2023-04-21T18:42:19.726Z,7.60
2023-04-21T18:45:05.414Z,7.45
2023-04-21T18:47:50.523Z,10.77
2023-04-21T18:50:39.551Z,8.10
2023-04-21T18:53:25.234Z,9.02
2023-04-21T18:56:10.664Z,7.90
2023-04-21T18:58:56.875Z,7.75
2023-04-21T19:01:42.219Z,11.35
2023-04-21T19:04:27.492Z,8.50
2023-04-21T19:07:15.453Z,9.15
2023-04-21T19:10:00.764Z,13.20
2023-04-21T19:12:46.072Z,6.70
2023-04-21T19:15:31.282Z,12.07
2023-04-21T19:18:19.730Z,9.93
2023-04-21T19:21:05.841Z,8.55
2023-04-21T19:23:51.254Z,7.95
2023-04-21T19:26:36.591Z,8.13
2023-04-21T19:29:21.676Z,10.32
2023-04-21T19:32:07.476Z,8.10
2023-04-21T19:34:53.061Z,9.73
2023-04-21T19:37:38.687Z,9.25
2023-04-21T19:40:23.772Z,11.32
2023-04-21T19:43:14.516Z,11.18
2023-04-21T19:45:59.766Z,11.18
2023-04-21T19:48:44.836Z,10.10
2023-04-21T19:51:32.828Z,8.63
2023-04-21T19:54:18.109Z,10.23
2023-04-21T19:57:03.425Z,8.82
2023-04-21T19:59:49.053Z,11.32
2023-04-21T20:02:34.817Z,10.45
2023-04-21T20:05:20.286Z,9.50
2023-04-21T20:08:06.391Z,12.98
2023-04-21T20:10:51.647Z,10.07
2023-04-21T20:13:37.372Z,8.43
2023-04-21T20:16:23.793Z,10.93
2023-04-21T20:19:10.129Z,15.55
2023-04-21T20:21:55.374Z,10.30
2023-04-21T20:24:42.274Z,11.65
2023-04-21T20:27:27.673Z,13.85
2023-04-21T20:30:13.084Z,11.13
2023-04-21T20:32:58.202Z,14.00
2023-04-21T20:35:45.860Z,12.02
2023-04-21T20:38:34.288Z,12.88
2023-04-21T20:41:23.144Z,11.90
2023-04-21T20:44:09.046Z,12.53
2023-04-21T20:46:54.360Z,9.05
2023-04-21T20:49:40.300Z,14.80
2023-04-21T20:52:25.837Z,10.30
2023-04-21T20:55:11.094Z,10.63
2023-04-21T20:57:56.264Z,7.65
2023-04-21T21:00:41.772Z,10.23
2023-04-21T21:03:26.946Z,9.63
2023-04-21T21:06:12.967Z,9.25
2023-04-21T21:08:59.058Z,11.20
2023-04-21T21:11:44.431Z,12.57
2023-04-21T21:14:29.878Z,10.77
2023-04-21T21:17:16.505Z,11.55
2023-04-21T21:20:01.812Z,9.93
2023-04-21T21:22:47.264Z,11.68
2023-04-21T21:25:32.402Z,11.00
2023-04-21T21:28:19.068Z,10.98
2023-04-21T21:31:04.470Z,10.40
2023-04-21T21:33:50.155Z,13.15
2023-04-21T21:36:36.028Z,12.90
2023-04-21T21:39:21.471Z,13.50
2023-04-21T21:42:06.849Z,16.38
2023-04-21T21:44:52.258Z,13.63
2023-04-21T21:47:41.043Z,13.05
2023-04-21T21:50:28.178Z,7.82
2023-04-21T21:53:13.490Z,9.40
2023-04-21T21:55:59.811Z,12.57
2023-04-21T21:58:45.239Z,10.52
2023-04-21T22:01:30.393Z,9.85
2023-04-21T22:04:15.840Z,10.32
2023-04-21T22:07:01.663Z,11.63
2023-04-21T22:09:47.082Z,10.80
2023-04-21T22:12:33.041Z,12.35
2023-04-21T22:15:18.137Z,12.73
2023-04-21T22:18:03.581Z,14.90
2023-04-21T22:20:48.698Z,11.90
2023-04-21T22:23:33.925Z,10.27
2023-04-21T22:26:19.455Z,11.68
2023-04-21T22:29:04.501Z,15.52
2023-04-21T22:31:49.995Z,10.48
2023-04-21T22:34:35.124Z,11.50
2023-04-21T22:37:20.420Z,10.85
2023-04-21T22:40:09.904Z,12.43
2023-04-21T22:42:55.150Z,11.43
2023-04-21T22:45:42.759Z,11.30
2023-04-21T22:48:28.415Z,11.23
2023-04-21T22:51:20.691Z,12.10
2023-04-21T22:54:06.162Z,9.48
2023-04-21T22:56:51.663Z,11.73
2023-04-21T22:59:36.907Z,14.05
2023-04-21T23:02:22.327Z,11.82
2023-04-21T23:05:08.248Z,11.65
2023-04-21T23:07:54.372Z,11.40
2023-04-21T23:10:40.481Z,10.32
2023-04-21T23:13:25.905Z,12.80
2023-04-21T23:16:11.192Z,11.45
2023-04-21T23:18:56.399Z,16.60
2023-04-21T23:21:41.441Z,15.88
2023-04-21T23:24:26.568Z,8.85
2023-04-21T23:27:12.021Z,13.20
2023-04-21T23:29:57.497Z,14.48
2023-04-21T23:32:43.632Z,11.32
2023-04-21T23:35:29.013Z,10.23
2023-04-21T23:38:14.144Z,12.43
2023-04-21T23:40:59.535Z,11.32
2023-04-21T23:43:44.881Z,14.55
2023-04-21T23:46:30.684Z,12.85
2023-04-21T23:49:16.294Z,11.45
2023-04-21T23:52:01.556Z,14.15
2023-04-21T23:54:47.174Z,14.43
2023-04-21T23:57:32.756Z,10.57
